CheckWX is a tool to help pilots better visualize weather data.  It is not intended as a substitute for an official pre-flight weather briefing.

13:35:11 UTC

PAJN METAR
Juneau International Airport
Juneau, Alaska, USA
Current

42 mins ago

PAJN 251253Z 06005KT 10SM -RA FEW029 BKN036 OVC055 12/11 A3001 RMK SLP162 PCPN INTMT AND VRY LGT P0000 T01170106 VIA AUTODIAL
Observed
Aug-25 @ 12:53 UTC
Wind
  • 060° at 5 KTS
Visibility
10 SM
Flight Rules
VFR
Conditions
Light Rain
Cloud Levels
  • Few at 2,900' AGL
  • Broken at 3,600' AGL
  • Overcast at 5,500' AGL
Temperature
12°C / 54°F
Dewpoint
11°C / 52°F
Humidity
94%
Altimeter
30.01" Hg
Pressure
1016.22 hPa
Current Rain
0.01"
Previous

1 hour ago

PAJN 251211Z 07005KT 10SM -RA FEW029 BKN036 OVC055 12/11 A3000 RMK AO2 PCPN INTMT AND VRY LGT P0000 T01170106
Observed
Aug-25 @ 12:11 UTC
Wind
  • 070° at 5 KTS
Visibility
10 SM
Flight Rules
VFR
Conditions
Light Rain
Cloud Levels
  • Few at 2,900' AGL
  • Broken at 3,600' AGL
  • Overcast at 5,500' AGL
Temperature
12°C / 54°F
Dewpoint
11°C / 52°F
Humidity
94%
Altimeter
30" Hg
Pressure
1015.92 hPa
Current Rain
0.01"
Previous

2 hours ago

PAJN 251153Z 07005KT 10SM -RA BKN029 BKN036 OVC050 12/11 A2999 RMK AO2 SLP157 PCPN INTMT AND VRY LGT P0000 60025 70061 T01170106 10122 20111 53018
Observed
Aug-25 @ 11:53 UTC
Wind
  • 070° at 5 KTS
Visibility
10 SM
Flight Rules
MVFR
Conditions
Light Rain
Cloud Levels
  • Broken at 2,900' AGL
  • Broken at 3,600' AGL
  • Overcast at 5,000' AGL
Temperature
12°C / 54°F
Dewpoint
11°C / 52°F
Humidity
94%
Altimeter
29.99" Hg
Pressure
1015.62 hPa
Current Rain
0.01"
24 Hour Rain
0.61"